Terminal Aerodrome Forecast
Issued by NWS Austin/San Antonio, TX

Home | Current Version | Previous Version | Text Only | Print | Product List | Glossary On
Versions: 1 2 3 4 5 6 7 8 9 10 11 12 13 14 15 16 17
000
FTUS44 KEWX 232352 CCA
TAFSAT
TAF COR
KSAT 232352Z 2400/2506 34012KT P6SM SCT070 BKN120
     FM240300 05005KT P6SM BKN100
     FM241100 VRB04KT P6SM BKN050
     FM241800 08008KT P6SM VCSH BKN060=

USA.gov is the U.S. government's official web portal to all federal, state and local government web resources and services.